createdAt,value
2018-12-19T00:01:53.234Z,100964.91
2018-12-19T00:05:18.150Z,100968.45
2018-12-19T00:08:42.827Z,100981.00
2018-12-19T00:12:08.081Z,100968.52
2018-12-19T00:15:32.802Z,100955.90
2018-12-19T00:18:57.705Z,100940.48
2018-12-19T00:22:22.492Z,100925.52
2018-12-19T00:25:47.282Z,100923.98
2018-12-19T00:29:12.170Z,100920.91
2018-12-19T00:32:37.062Z,100920.06
2018-12-19T00:36:01.821Z,100926.93
2018-12-19T00:39:26.624Z,100929.55
2018-12-19T00:42:51.391Z,100912.28
2018-12-19T00:46:16.214Z,100905.59
2018-12-19T00:49:40.911Z,100896.93
2018-12-19T01:00:50.096Z,100877.69
2018-12-19T01:04:14.761Z,100866.00
2018-12-19T01:07:39.452Z,100870.82
2018-12-19T01:11:04.131Z,100888.05
2018-12-19T01:14:28.878Z,100899.27
2018-12-19T01:17:53.534Z,100870.29
2018-12-19T01:21:18.333Z,100871.05
2018-12-19T01:24:43.048Z,100869.56
2018-12-19T01:28:07.712Z,100880.90
2018-12-19T01:31:32.388Z,100897.90
2018-12-19T01:34:57.039Z,100896.57
2018-12-19T01:38:21.714Z,100902.08
2018-12-19T01:41:46.409Z,100897.11
2018-12-19T01:45:11.141Z,100899.62
2018-12-19T01:48:35.840Z,100907.69
2018-12-19T01:52:00.517Z,100919.69
2018-12-19T01:55:25.233Z,100911.24
2018-12-19T01:58:50.003Z,100895.23
2018-12-19T02:02:14.823Z,100906.52
2018-12-19T02:05:39.568Z,100913.25
2018-12-19T02:09:06.705Z,100900.98
2018-12-19T02:12:31.485Z,100912.70
2018-12-19T02:15:56.254Z,100900.29
2018-12-19T02:19:21.074Z,100918.06
2018-12-19T02:22:46.199Z,100925.56
2018-12-19T02:26:11.048Z,100918.64
2018-12-19T02:29:35.699Z,100932.77
2018-12-19T02:33:00.601Z,100941.42
2018-12-19T02:36:25.276Z,100947.36
2018-12-19T02:39:50.002Z,100971.86
2018-12-19T02:43:14.683Z,100957.54
2018-12-19T02:46:39.361Z,100933.74
2018-12-19T02:50:04.249Z,100886.86
2018-12-19T02:53:28.907Z,100890.63
2018-12-19T02:56:53.577Z,100887.25
2018-12-19T03:00:18.197Z,100898.35
2018-12-19T03:03:42.883Z,100886.67
2018-12-19T03:07:07.597Z,100904.19
2018-12-19T03:10:32.337Z,100906.69
2018-12-19T03:13:57.763Z,100904.02
2018-12-19T03:17:22.404Z,100883.36
2018-12-19T03:20:47.035Z,100867.20
2018-12-19T03:24:11.719Z,100868.55
2018-12-19T03:27:36.450Z,100853.58
2018-12-19T03:31:01.175Z,100843.77
2018-12-19T03:34:25.852Z,100827.96
2018-12-19T03:37:50.554Z,100822.34
2018-12-19T03:41:15.351Z,100820.00
2018-12-19T03:44:40.120Z,100821.42
2018-12-19T03:48:04.813Z,100820.48
2018-12-19T03:51:29.484Z,100828.57
2018-12-19T03:54:54.320Z,100822.34
2018-12-19T03:58:19.083Z,100814.00
2018-12-19T04:01:43.993Z,100830.21
2018-12-19T04:05:08.763Z,100838.03
2018-12-19T04:08:33.570Z,100835.34
2018-12-19T04:11:58.403Z,100832.80
2018-12-19T04:15:23.134Z,100829.81
2018-12-19T04:18:48.757Z,100829.48
2018-12-19T04:22:13.603Z,100823.13
2018-12-19T04:25:38.411Z,100824.28
2018-12-19T04:29:04.285Z,100835.09
2018-12-19T04:32:29.062Z,100834.86
2018-12-19T04:35:54.139Z,100837.64
2018-12-19T04:39:19.452Z,100846.11
2018-12-19T04:42:44.270Z,100839.97
2018-12-19T04:46:09.014Z,100838.25
2018-12-19T04:49:33.682Z,100849.61
2018-12-19T04:52:58.337Z,100844.83
2018-12-19T04:56:22.969Z,100852.30
2018-12-19T04:59:47.616Z,100840.06
2018-12-19T05:03:12.754Z,100851.05
2018-12-19T05:06:37.407Z,100850.26
2018-12-19T05:10:02.342Z,100866.66
2018-12-19T05:13:27.074Z,100869.56
2018-12-19T05:16:51.821Z,100860.03
2018-12-19T05:20:16.515Z,100864.21
2018-12-19T05:23:41.444Z,100867.53
2018-12-19T05:27:07.137Z,100871.72
2018-12-19T05:30:32.093Z,100868.56
2018-12-19T05:33:56.946Z,100883.05
2018-12-19T05:37:22.283Z,100885.84
2018-12-19T05:40:47.014Z,100881.45
2018-12-19T05:44:11.879Z,100887.87
2018-12-19T05:47:37.310Z,100899.17
2018-12-19T05:51:02.105Z,100886.91
2018-12-19T05:54:26.803Z,100893.03
2018-12-19T05:57:51.515Z,100903.00
2018-12-19T06:01:16.400Z,100904.98
2018-12-19T06:04:41.106Z,100905.29
2018-12-19T06:08:05.845Z,100912.67
2018-12-19T06:11:30.590Z,100917.70
2018-12-19T06:14:55.253Z,100917.26
2018-12-19T06:18:20.054Z,100912.37
2018-12-19T06:21:44.752Z,100924.39
2018-12-19T06:25:09.488Z,100929.84
2018-12-19T06:28:41.053Z,100929.59
2018-12-19T06:32:05.768Z,100931.81
2018-12-19T06:35:30.442Z,100930.22
2018-12-19T06:38:55.338Z,100937.81
2018-12-19T06:42:20.053Z,100938.98
2018-12-19T06:45:44.742Z,100941.14
2018-12-19T06:49:09.457Z,100931.58
2018-12-19T06:52:34.126Z,100928.37
2018-12-19T06:56:17.158Z,100931.14
2018-12-19T06:59:42.287Z,100939.58
2018-12-19T07:03:06.995Z,100941.06
2018-12-19T07:06:38.595Z,100946.42
2018-12-19T07:10:03.442Z,100951.08
2018-12-19T07:13:28.762Z,100956.06
2018-12-19T07:16:53.452Z,100956.66
2018-12-19T07:20:18.139Z,100961.72
2018-12-19T07:23:43.056Z,100962.19
2018-12-19T07:27:07.744Z,100963.06
2018-12-19T07:30:32.379Z,100966.83
2018-12-19T07:33:57.112Z,100972.30
2018-12-19T07:37:21.818Z,100974.89
2018-12-19T07:40:46.558Z,100975.66
2018-12-19T07:44:11.380Z,100969.11
2018-12-19T07:47:36.204Z,100979.19
2018-12-19T07:51:00.969Z,100985.73
2018-12-19T07:54:25.711Z,100982.78
2018-12-19T07:57:50.389Z,100978.02
2018-12-19T08:01:15.079Z,100989.59
2018-12-19T08:04:40.267Z,100987.66
2018-12-19T08:08:05.128Z,100992.68
2018-12-19T08:11:29.980Z,101002.05
2018-12-19T08:14:59.801Z,101005.84
2018-12-19T08:18:24.472Z,101010.72
2018-12-19T08:21:49.154Z,101014.17
2018-12-19T08:25:13.794Z,101013.91
2018-12-19T08:28:39.650Z,101023.00
2018-12-19T08:32:04.299Z,101019.88
2018-12-19T08:35:28.989Z,101029.39
2018-12-19T08:38:53.765Z,101033.52
2018-12-19T08:42:18.629Z,101035.25
2018-12-19T08:45:43.889Z,101044.71
2018-12-19T08:49:08.588Z,101045.95
2018-12-19T08:52:33.271Z,101049.61
2018-12-19T08:55:58.002Z,101059.12
2018-12-19T08:59:22.713Z,101062.39
2018-12-19T09:02:47.405Z,101071.11
2018-12-19T09:06:12.144Z,101074.11
2018-12-19T09:09:36.805Z,101075.95
2018-12-19T09:13:01.635Z,101073.13
2018-12-19T09:16:26.345Z,101072.02
2018-12-19T09:19:51.465Z,101076.57
2018-12-19T09:23:17.301Z,101070.52
2018-12-19T09:26:42.202Z,101081.64
2018-12-19T09:30:08.393Z,101073.61
2018-12-19T09:33:33.240Z,101072.52
2018-12-19T09:36:57.911Z,101075.00
2018-12-19T09:40:22.607Z,101087.98
2018-12-19T09:43:47.296Z,101083.47
2018-12-19T09:47:12.058Z,101077.77
2018-12-19T09:50:36.797Z,101079.91
2018-12-19T09:54:01.465Z,101083.06
2018-12-19T09:57:26.253Z,101078.99
2018-12-19T10:00:51.010Z,101072.78
2018-12-19T10:04:15.765Z,101064.83
2018-12-19T10:07:40.429Z,101053.41
2018-12-19T10:11:05.212Z,101047.95
2018-12-19T10:14:29.882Z,101051.56
2018-12-19T10:17:54.577Z,101043.95
2018-12-19T10:21:20.693Z,101052.45
2018-12-19T10:24:50.661Z,101053.17
2018-12-19T10:28:17.418Z,101041.43
2018-12-19T10:31:42.134Z,101045.20
2018-12-19T10:35:07.500Z,101039.00
2018-12-19T10:38:32.163Z,101037.05
2018-12-19T10:41:56.939Z,101027.22
2018-12-19T10:45:21.683Z,101025.16
2018-12-19T10:48:46.473Z,101018.27
2018-12-19T10:52:11.219Z,101018.31
2018-12-19T10:55:35.979Z,101018.50
2018-12-19T10:59:00.750Z,101015.68
2018-12-19T11:02:25.452Z,101011.62
2018-12-19T11:05:54.264Z,101021.58
2018-12-19T11:09:16.896Z,101023.22
2018-12-19T11:12:41.599Z,101026.28
2018-12-19T11:16:06.297Z,101031.82
2018-12-19T11:19:31.023Z,101024.73
2018-12-19T11:22:55.792Z,101017.53
2018-12-19T11:26:20.522Z,101019.59
2018-12-19T11:29:45.279Z,101016.35
2018-12-19T11:33:09.973Z,101025.77
2018-12-19T11:36:34.685Z,101015.08
2018-12-19T11:39:59.439Z,101019.11
2018-12-19T11:43:24.120Z,101013.52
2018-12-19T11:46:48.797Z,101018.11
2018-12-19T11:50:13.480Z,101007.13
2018-12-19T11:53:38.202Z,101014.17
2018-12-19T11:57:03.172Z,101009.61
2018-12-19T12:00:27.867Z,101007.31
2018-12-19T12:03:52.559Z,100994.59
2018-12-19T12:07:17.598Z,100992.41
2018-12-19T12:10:42.244Z,100997.55
2018-12-19T12:14:06.915Z,100993.47
2018-12-19T12:17:31.726Z,100982.62
2018-12-19T12:20:56.661Z,100988.01
2018-12-19T12:24:21.318Z,100990.08
2018-12-19T12:28:10.178Z,100986.86
2018-12-19T12:31:35.444Z,100981.91
2018-12-19T12:35:00.097Z,100975.86
2018-12-19T12:38:24.818Z,100975.98
2018-12-19T12:41:52.470Z,100976.05
2018-12-19T12:45:16.450Z,100965.89
2018-12-19T12:48:41.120Z,100974.62
2018-12-19T12:52:05.853Z,100967.98
2018-12-19T12:55:30.534Z,100970.88
2018-12-19T12:58:55.165Z,100969.23
2018-12-19T13:02:20.858Z,100964.39
2018-12-19T13:05:45.485Z,100962.17
2018-12-19T13:09:10.530Z,100962.59
2018-12-19T13:12:35.288Z,100961.80
2018-12-19T13:15:59.953Z,100967.80
2018-12-19T13:19:24.704Z,100964.80
2018-12-19T13:22:49.481Z,100957.34
2018-12-19T13:26:14.460Z,100963.11
2018-12-19T13:29:39.397Z,100959.09
2018-12-19T13:33:04.129Z,100953.55
2018-12-19T13:36:28.942Z,100952.38
2018-12-19T13:39:53.649Z,100955.41
2018-12-19T13:43:18.547Z,100941.00
2018-12-19T13:46:43.304Z,100943.95
2018-12-19T13:50:08.993Z,100945.26
2018-12-19T13:53:33.731Z,100944.72
2018-12-19T13:56:58.360Z,100940.62
2018-12-19T14:00:23.517Z,100943.58
2018-12-19T14:03:48.284Z,100942.78
2018-12-19T14:07:12.938Z,100942.92
2018-12-19T14:10:37.664Z,100932.95
2018-12-19T14:14:02.345Z,100933.14
2018-12-19T14:17:27.103Z,100931.15
2018-12-19T14:20:51.736Z,100935.61
2018-12-19T14:24:16.584Z,100929.39
2018-12-19T14:27:41.278Z,100931.94
2018-12-19T14:31:06.881Z,100936.50
2018-12-19T14:34:31.532Z,100929.91
2018-12-19T14:37:56.179Z,100936.89
2018-12-19T14:41:20.843Z,100932.23
2018-12-19T14:44:45.524Z,100935.42
2018-12-19T14:48:10.226Z,100928.04
2018-12-19T14:51:35.020Z,100936.44
2018-12-19T14:55:01.736Z,100929.76
2018-12-19T14:58:26.385Z,100929.76
2018-12-19T15:01:51.091Z,100927.80
2018-12-19T15:05:15.851Z,100924.58
2018-12-19T15:08:40.555Z,100923.85
2018-12-19T15:12:05.944Z,100914.63
2018-12-19T15:15:30.652Z,100913.98
2018-12-19T15:18:55.492Z,100910.05
2018-12-19T15:22:20.245Z,100905.07
2018-12-19T15:25:44.929Z,100897.50
2018-12-19T15:29:09.617Z,100894.44
2018-12-19T15:32:36.102Z,100889.97
2018-12-19T15:36:01.723Z,100887.98
2018-12-19T15:39:26.443Z,100889.86
2018-12-19T15:42:51.715Z,100901.27
2018-12-19T15:46:16.446Z,100901.33
2018-12-19T15:49:41.219Z,100911.84
2018-12-19T15:53:05.902Z,100916.52
2018-12-19T15:56:30.562Z,100923.23
2018-12-19T15:59:55.266Z,100932.56
2018-12-19T16:03:19.965Z,100947.06
2018-12-19T16:06:44.616Z,100947.27
2018-12-19T16:10:09.722Z,100947.89
2018-12-19T16:13:36.745Z,100950.62
2018-12-19T16:17:01.468Z,100950.38
2018-12-19T16:20:26.300Z,100950.95
2018-12-19T16:23:51.014Z,100944.06
2018-12-19T16:27:15.754Z,100947.06
2018-12-19T16:30:40.502Z,100956.88
2018-12-19T16:34:05.297Z,100948.19
2018-12-19T16:37:29.950Z,100950.70
2018-12-19T16:40:54.644Z,100945.82
2018-12-19T16:44:19.380Z,100943.14
2018-12-19T16:47:44.090Z,100941.69
2018-12-19T16:51:08.824Z,100946.10
2018-12-19T16:54:40.097Z,100941.75
2018-12-19T16:58:05.486Z,100939.06
2018-12-19T17:01:30.181Z,100937.89
2018-12-19T17:04:55.033Z,100938.56
2018-12-19T17:08:19.730Z,100940.47
2018-12-19T17:11:44.412Z,100941.31
2018-12-19T17:15:09.242Z,100936.88
2018-12-19T17:18:33.943Z,100936.03
2018-12-19T17:21:58.898Z,100930.22
2018-12-19T17:25:23.631Z,100929.50
2018-12-19T17:28:48.321Z,100931.03
2018-12-19T17:32:13.154Z,100924.59
2018-12-19T17:35:37.791Z,100929.97
2018-12-19T17:39:02.590Z,100930.08
2018-12-19T17:42:27.268Z,100927.92
2018-12-19T17:45:51.987Z,100929.66
2018-12-19T17:49:16.697Z,100929.88
2018-12-19T17:52:41.503Z,100932.09
2018-12-19T17:56:06.229Z,100926.38
2018-12-19T17:59:30.875Z,100935.91
2018-12-19T18:02:55.794Z,100930.80
2018-12-19T18:06:20.480Z,100944.66
2018-12-19T18:09:45.565Z,100947.84
2018-12-19T18:13:10.248Z,100956.63
2018-12-19T18:16:34.913Z,100951.98
2018-12-19T18:19:59.661Z,100957.97
2018-12-19T18:23:24.310Z,100954.41
2018-12-19T18:26:49.006Z,100954.72
2018-12-19T18:30:13.611Z,100963.67
2018-12-19T18:33:38.359Z,100956.65
2018-12-19T18:37:03.325Z,100955.39
2018-12-19T18:40:28.207Z,100955.11
2018-12-19T18:43:59.776Z,100946.64
2018-12-19T18:47:24.591Z,100954.33
2018-12-19T18:50:49.251Z,100944.61
2018-12-19T18:54:13.947Z,100950.48
2018-12-19T18:57:38.658Z,100951.17
2018-12-19T19:01:03.383Z,100951.67
2018-12-19T19:04:28.325Z,100953.11
2018-12-19T19:07:53.261Z,100944.31
2018-12-19T19:11:18.574Z,100942.17
2018-12-19T19:14:43.304Z,100937.67
2018-12-19T19:18:07.970Z,100931.05
2018-12-19T19:21:32.692Z,100928.83
2018-12-19T19:24:57.370Z,100933.53
2018-12-19T19:28:22.165Z,100934.86
2018-12-19T19:31:46.867Z,100936.31
2018-12-19T19:35:11.654Z,100928.33
2018-12-19T19:38:36.443Z,100932.87
2018-12-19T19:42:01.115Z,100929.19
2018-12-19T19:45:25.776Z,100933.89
2018-12-19T19:48:50.494Z,100928.53
2018-12-19T19:52:22.529Z,100928.31
2018-12-19T19:55:47.308Z,100925.16
2018-12-19T19:59:12.008Z,100929.46
2018-12-19T20:02:36.688Z,100933.22
2018-12-19T20:06:01.400Z,100931.97
2018-12-19T20:09:26.167Z,100936.48
2018-12-19T20:12:50.874Z,100944.48
2018-12-19T20:16:15.663Z,100946.94
2018-12-19T20:19:40.459Z,100949.38
2018-12-19T20:23:05.147Z,100946.38
2018-12-19T20:26:29.811Z,100947.33
2018-12-19T20:29:54.510Z,100952.94
2018-12-19T20:33:19.140Z,100949.89
2018-12-19T20:36:43.834Z,100951.78
2018-12-19T20:40:08.545Z,100950.59
2018-12-19T20:43:39.731Z,100956.02
2018-12-19T20:46:59.948Z,100951.64
2018-12-19T20:50:24.610Z,100947.19
2018-12-19T20:53:49.265Z,100942.03
2018-12-19T20:57:14.083Z,100937.09
2018-12-19T21:00:38.771Z,100939.58
2018-12-19T21:04:03.399Z,100933.23
2018-12-19T21:07:28.115Z,100935.28
2018-12-19T21:10:52.836Z,100936.48
2018-12-19T21:14:17.495Z,100936.57
2018-12-19T21:17:47.499Z,100932.75
2018-12-19T21:21:12.211Z,100942.64
2018-12-19T21:24:37.040Z,100939.08
2018-12-19T21:28:01.671Z,100943.72
2018-12-19T21:31:26.352Z,100938.14
2018-12-19T21:34:51.036Z,100937.08
2018-12-19T21:38:15.805Z,100934.78
2018-12-19T21:41:40.709Z,100931.31
2018-12-19T21:45:05.760Z,100933.98
2018-12-19T21:48:30.511Z,100933.23
2018-12-19T21:51:55.260Z,100932.17
2018-12-19T21:55:19.981Z,100929.19
2018-12-19T21:58:44.725Z,100932.05
2018-12-19T22:02:09.478Z,100936.33
2018-12-19T22:05:34.210Z,100943.33
2018-12-19T22:08:58.987Z,100937.47
2018-12-19T22:12:23.856Z,100943.30
2018-12-19T22:15:49.403Z,100943.98
2018-12-19T22:19:14.128Z,100943.50
2018-12-19T22:22:38.913Z,100941.87
2018-12-19T22:26:04.334Z,100938.34
2018-12-19T22:29:29.098Z,100944.57
2018-12-19T22:32:53.770Z,100939.39
2018-12-19T22:36:18.604Z,100936.88
2018-12-19T22:39:43.267Z,100932.45
2018-12-19T22:43:08.092Z,100929.06
2018-12-19T22:46:32.805Z,100933.65
2018-12-19T22:49:57.612Z,100929.86
2018-12-19T22:53:28.925Z,100925.98
2018-12-19T22:56:53.649Z,100920.42
2018-12-19T23:00:18.551Z,100917.25
2018-12-19T23:03:48.429Z,100923.69
2018-12-19T23:07:13.137Z,100925.16
2018-12-19T23:10:37.904Z,100921.77
2018-12-19T23:14:02.689Z,100914.93
2018-12-19T23:17:32.718Z,100914.50
2018-12-19T23:20:57.683Z,100918.53
2018-12-19T23:24:22.597Z,100909.67
2018-12-19T23:27:47.361Z,100907.52
2018-12-19T23:31:12.224Z,100907.22
2018-12-19T23:34:36.983Z,100910.02
2018-12-19T23:38:01.731Z,100902.11
2018-12-19T23:41:26.524Z,100903.65
2018-12-19T23:44:51.258Z,100900.80
2018-12-19T23:48:16.073Z,100897.52
2018-12-19T23:51:40.839Z,100894.39
2018-12-19T23:55:06.103Z,100893.98
2018-12-19T23:58:35.654Z,100893.77
